createdAt,value
2023-08-29T00:00:52.526Z,0.93
2023-08-29T00:03:20.433Z,0.98
2023-08-29T00:05:49.613Z,1.10
2023-08-29T00:08:17.483Z,1.10
2023-08-29T00:10:45.491Z,0.85
2023-08-29T00:13:13.639Z,1.15
2023-08-29T00:15:41.426Z,0.85
2023-08-29T00:18:09.453Z,0.80
2023-08-29T00:20:37.575Z,0.93
2023-08-29T00:23:10.295Z,1.05
2023-08-29T00:25:38.149Z,1.10
2023-08-29T00:28:06.400Z,0.98
2023-08-29T00:30:35.300Z,1.10
2023-08-29T00:33:03.153Z,0.75
2023-08-29T00:35:31.216Z,1.02
2023-08-29T00:37:59.148Z,0.90
2023-08-29T00:40:31.527Z,0.68
2023-08-29T00:42:59.858Z,0.88
2023-08-29T00:45:28.589Z,0.95
2023-08-29T00:47:57.638Z,0.80
2023-08-29T00:50:26.879Z,1.00
2023-08-29T00:52:59.162Z,1.10
2023-08-29T00:55:30.143Z,0.82
2023-08-29T00:58:00.943Z,0.90
2023-08-29T01:00:30.140Z,0.90
2023-08-29T01:02:58.895Z,0.85
2023-08-29T01:05:29.292Z,0.80
2023-08-29T01:08:00.293Z,0.90
2023-08-29T01:10:38.280Z,1.02
2023-08-29T01:13:17.332Z,0.90
2023-08-29T01:15:50.403Z,0.70
2023-08-29T01:18:21.606Z,0.93
2023-08-29T01:20:51.201Z,0.70
2023-08-29T01:23:25.142Z,0.95
2023-08-29T01:26:06.747Z,0.80
2023-08-29T01:28:35.500Z,0.90
2023-08-29T01:31:06.067Z,0.98
2023-08-29T01:33:34.671Z,1.00
2023-08-29T01:36:04.300Z,0.73
2023-08-29T01:38:32.300Z,0.88
2023-08-29T01:41:00.142Z,1.08
2023-08-29T01:43:29.467Z,0.93
2023-08-29T01:45:58.708Z,1.02
2023-08-29T01:48:26.708Z,0.70
2023-08-29T01:50:54.739Z,0.70
2023-08-29T01:53:22.755Z,0.90
2023-08-29T01:55:51.172Z,1.10
2023-08-29T01:58:21.041Z,0.80
2023-08-29T02:00:50.450Z,0.93
2023-08-29T02:03:18.346Z,0.90
2023-08-29T02:05:47.625Z,0.90
2023-08-29T02:08:15.425Z,1.23
2023-08-29T02:10:43.224Z,1.35
2023-08-29T02:13:11.633Z,0.90
2023-08-29T02:15:39.458Z,0.70
2023-08-29T02:18:09.494Z,0.90
2023-08-29T02:20:39.682Z,0.77
2023-08-29T02:23:11.999Z,0.80
2023-08-29T02:25:39.792Z,1.00
2023-08-29T02:28:07.053Z,0.80
2023-08-29T02:30:37.181Z,0.80
2023-08-29T02:33:05.191Z,1.02
2023-08-29T02:35:34.420Z,0.93
2023-08-29T02:38:05.877Z,1.10
2023-08-29T02:40:34.948Z,0.90
2023-08-29T02:43:02.833Z,0.90
2023-08-29T02:45:30.615Z,0.93
2023-08-29T02:47:58.486Z,0.82
2023-08-29T02:50:26.287Z,0.90
2023-08-29T02:52:55.394Z,0.77
2023-08-29T02:55:23.147Z,0.85
2023-08-29T02:57:51.023Z,0.80
2023-08-29T03:00:19.841Z,0.90
2023-08-29T03:02:47.736Z,0.80
2023-08-29T03:05:16.505Z,1.15
2023-08-29T03:07:44.504Z,0.95
2023-08-29T03:10:13.859Z,0.90
2023-08-29T03:12:42.055Z,1.10
2023-08-29T03:15:10.439Z,0.65
2023-08-29T03:17:38.333Z,1.20
2023-08-29T03:20:09.616Z,1.05
2023-08-29T03:22:38.080Z,0.82
2023-08-29T03:25:07.255Z,1.00
2023-08-29T03:27:36.428Z,0.98
2023-08-29T03:30:05.068Z,0.90
2023-08-29T03:32:33.257Z,0.90
2023-08-29T03:35:01.693Z,1.00
2023-08-29T03:37:29.696Z,1.10
2023-08-29T03:39:59.529Z,1.20
2023-08-29T03:42:27.986Z,1.02
2023-08-29T03:44:57.165Z,0.80
2023-08-29T03:47:25.202Z,1.15
2023-08-29T03:49:53.832Z,0.82
2023-08-29T03:52:24.747Z,0.95
2023-08-29T03:54:54.303Z,0.70
2023-08-29T03:57:22.571Z,0.80
2023-08-29T03:59:50.376Z,1.17
2023-08-29T04:02:21.207Z,1.10
2023-08-29T04:04:54.494Z,1.35
2023-08-29T04:07:22.468Z,1.20
2023-08-29T04:09:50.270Z,0.90
2023-08-29T04:12:18.130Z,1.10
2023-08-29T04:14:45.949Z,0.93
2023-08-29T04:17:14.089Z,1.00
2023-08-29T04:19:43.280Z,1.48
2023-08-29T04:22:11.118Z,1.00
2023-08-29T04:24:38.914Z,1.25
2023-08-29T04:27:07.051Z,1.20
2023-08-29T04:29:34.872Z,1.02
2023-08-29T04:32:02.642Z,1.02
2023-08-29T04:34:30.778Z,1.00
2023-08-29T04:37:00.047Z,0.90
2023-08-29T04:39:28.860Z,1.10
2023-08-29T04:41:57.191Z,0.95
2023-08-29T04:44:25.731Z,0.93
2023-08-29T04:46:53.625Z,0.93
2023-08-29T04:49:22.089Z,1.00
2023-08-29T04:51:49.933Z,1.20
2023-08-29T04:54:20.032Z,1.20
2023-08-29T04:56:48.172Z,1.00
2023-08-29T04:59:16.027Z,1.17
2023-08-29T05:01:43.984Z,1.20
2023-08-29T05:04:11.857Z,0.98
2023-08-29T05:06:39.806Z,1.30
2023-08-29T05:09:10.500Z,1.00
2023-08-29T05:11:39.721Z,0.90
2023-08-29T05:14:07.544Z,1.00
2023-08-29T05:16:35.330Z,1.00
2023-08-29T05:19:05.872Z,0.95
2023-08-29T05:21:33.776Z,1.10
2023-08-29T05:24:01.739Z,1.35
2023-08-29T05:26:29.515Z,0.88
2023-08-29T05:28:58.614Z,0.90
2023-08-29T05:31:26.814Z,0.90
2023-08-29T05:33:54.712Z,1.40
2023-08-29T05:36:22.536Z,1.00
2023-08-29T05:38:50.416Z,1.27
2023-08-29T05:41:18.233Z,1.10
2023-08-29T05:43:45.994Z,1.10
2023-08-29T05:46:15.710Z,1.13
2023-08-29T05:48:43.560Z,1.20
2023-08-29T05:51:11.371Z,1.10
2023-08-29T05:53:39.207Z,1.00
2023-08-29T05:56:07.031Z,0.80
2023-08-29T05:58:35.832Z,1.10
2023-08-29T06:01:07.570Z,1.10
2023-08-29T06:03:37.474Z,1.35
2023-08-29T06:06:05.530Z,1.00
2023-08-29T06:08:34.470Z,1.10
2023-08-29T06:11:02.606Z,1.02
2023-08-29T06:13:30.399Z,1.10
2023-08-29T06:15:58.219Z,1.15
2023-08-29T06:18:26.220Z,1.05
2023-08-29T06:20:55.491Z,0.90
2023-08-29T06:23:24.037Z,1.00
2023-08-29T06:25:53.259Z,1.13
2023-08-29T06:28:21.034Z,1.00
2023-08-29T06:30:48.856Z,0.85
2023-08-29T06:33:16.778Z,0.90
2023-08-29T06:35:44.764Z,1.08
2023-08-29T06:38:14.159Z,1.00
2023-08-29T06:40:42.323Z,1.10
2023-08-29T06:43:10.153Z,0.98
2023-08-29T06:45:37.936Z,1.00
2023-08-29T06:48:06.851Z,0.82
2023-08-29T06:50:35.818Z,1.00
2023-08-29T06:53:05.037Z,0.90
2023-08-29T06:55:35.770Z,1.20
2023-08-29T06:58:05.621Z,1.10
2023-08-29T07:00:34.032Z,1.13
2023-08-29T07:03:02.407Z,1.02
2023-08-29T07:05:32.359Z,1.08
2023-08-29T07:08:00.794Z,0.80
2023-08-29T07:10:28.817Z,0.88
2023-08-29T07:12:57.997Z,1.02
2023-08-29T07:15:25.820Z,1.25
2023-08-29T07:17:54.888Z,0.98
2023-08-29T07:20:22.950Z,1.15
2023-08-29T07:22:50.795Z,0.93
2023-08-29T07:25:21.184Z,1.30
2023-08-29T07:27:49.143Z,1.10
2023-08-29T07:30:18.287Z,1.17
2023-08-29T07:32:46.217Z,1.20
2023-08-29T07:35:15.042Z,1.02
2023-08-29T07:37:42.985Z,1.00
2023-08-29T07:40:12.281Z,1.15
2023-08-29T07:42:40.149Z,1.33
2023-08-29T07:45:08.920Z,1.20
2023-08-29T07:47:38.128Z,0.80
2023-08-29T07:50:07.416Z,0.80
2023-08-29T07:52:37.099Z,1.42
2023-08-29T07:55:06.546Z,1.10
2023-08-29T07:57:34.418Z,1.40
2023-08-29T08:00:02.240Z,1.20
2023-08-29T08:02:34.773Z,1.17
2023-08-29T08:05:04.106Z,0.90
2023-08-29T08:07:31.910Z,1.15
2023-08-29T08:09:59.708Z,1.10
2023-08-29T08:12:27.655Z,0.90
2023-08-29T08:14:55.520Z,0.80
2023-08-29T08:17:23.314Z,1.08
2023-08-29T08:19:51.294Z,0.80
2023-08-29T08:22:20.436Z,1.13
2023-08-29T08:24:48.321Z,1.50
2023-08-29T08:27:16.152Z,1.50
2023-08-29T08:29:44.184Z,1.23
2023-08-29T08:32:12.054Z,1.10
2023-08-29T08:34:39.882Z,1.10
2023-08-29T08:37:07.719Z,1.10
2023-08-29T08:39:36.898Z,1.08
2023-08-29T08:42:05.408Z,1.20
2023-08-29T08:44:35.501Z,1.42
2023-08-29T08:47:03.385Z,1.10
2023-08-29T08:49:31.634Z,1.60
2023-08-29T08:52:00.261Z,1.08
2023-08-29T08:54:28.099Z,1.50
2023-08-29T08:56:58.972Z,1.88
2023-08-29T08:59:27.247Z,1.40
2023-08-29T09:01:57.624Z,1.27
2023-08-29T09:04:26.139Z,1.30
2023-08-29T09:06:54.026Z,1.50
2023-08-29T09:09:24.284Z,1.80
2023-08-29T09:11:53.837Z,1.27
2023-08-29T09:14:23.854Z,1.73
2023-08-29T09:16:55.541Z,1.38
2023-08-29T09:19:24.379Z,1.58
2023-08-29T09:21:52.795Z,1.08
2023-08-29T09:24:35.217Z,1.15
2023-08-29T09:27:06.975Z,1.10
2023-08-29T09:29:36.207Z,1.00
2023-08-29T09:32:14.058Z,1.10
2023-08-29T09:34:42.470Z,1.15
2023-08-29T09:37:12.927Z,1.38
2023-08-29T09:39:40.910Z,1.10
2023-08-29T09:42:13.066Z,1.20
2023-08-29T09:44:42.674Z,0.93
2023-08-29T09:47:11.774Z,0.80
2023-08-29T09:49:44.343Z,0.90
2023-08-29T09:52:12.569Z,0.90
2023-08-29T09:54:46.952Z,0.90
2023-08-29T09:57:17.016Z,1.10
2023-08-29T09:59:46.985Z,0.90
2023-08-29T10:02:19.455Z,0.85
2023-08-29T10:04:48.740Z,1.02
2023-08-29T10:07:19.823Z,0.90
2023-08-29T10:09:47.969Z,0.90
2023-08-29T10:12:16.311Z,0.80
2023-08-29T10:14:46.036Z,0.90
2023-08-29T10:17:25.915Z,1.08
2023-08-29T10:20:00.034Z,1.08
2023-08-29T10:22:30.704Z,1.02
2023-08-29T10:25:01.778Z,1.00
2023-08-29T10:27:29.812Z,0.98
2023-08-29T10:29:59.162Z,1.00
2023-08-29T10:32:28.548Z,1.05
2023-08-29T10:34:56.576Z,0.95
2023-08-29T10:37:24.966Z,1.00
2023-08-29T10:39:53.048Z,1.00
2023-08-29T10:42:20.992Z,0.98
2023-08-29T10:44:50.235Z,0.80
2023-08-29T10:47:27.786Z,1.00
2023-08-29T10:50:00.437Z,0.70
2023-08-29T10:52:37.760Z,1.20
2023-08-29T10:55:09.308Z,0.90
2023-08-29T10:57:37.278Z,1.15
2023-08-29T11:00:17.027Z,1.08
2023-08-29T11:02:49.161Z,0.90
2023-08-29T11:05:17.763Z,1.00
2023-08-29T11:07:45.588Z,1.00
2023-08-29T11:10:18.424Z,0.90
2023-08-29T11:13:07.493Z,1.20
2023-08-29T11:16:18.460Z,1.00
2023-08-29T11:18:48.258Z,1.08
2023-08-29T11:21:19.019Z,0.88
2023-08-29T11:23:46.990Z,0.90
2023-08-29T11:26:15.473Z,1.10
2023-08-29T11:28:46.400Z,0.80
2023-08-29T11:31:14.656Z,0.80
2023-08-29T11:33:42.655Z,0.82
2023-08-29T11:36:11.815Z,0.98
2023-08-29T11:38:39.759Z,0.90
2023-08-29T11:41:30.160Z,0.98
2023-08-29T11:45:02.495Z,0.82
2023-08-29T11:46:45.418Z,0.88
2023-08-29T11:49:14.727Z,0.90
2023-08-29T11:51:44.116Z,0.90
2023-08-29T11:54:41.080Z,1.00
2023-08-29T11:57:09.194Z,1.13
2023-08-29T11:59:38.236Z,1.10
2023-08-29T12:02:06.284Z,0.90
2023-08-29T12:04:34.195Z,1.02
2023-08-29T12:07:11.416Z,1.05
2023-08-29T12:09:42.435Z,1.10
2023-08-29T12:12:10.998Z,1.08
2023-08-29T12:14:51.767Z,1.02
2023-08-29T12:17:20.091Z,1.05
2023-08-29T12:19:48.170Z,1.08
2023-08-29T12:22:20.680Z,1.00
2023-08-29T12:24:55.523Z,0.88
2023-08-29T12:27:23.442Z,1.08
2023-08-29T12:29:51.285Z,1.17
2023-08-29T12:32:20.217Z,0.90
2023-08-29T12:34:48.778Z,1.15
2023-08-29T12:37:17.924Z,0.90
2023-08-29T12:39:46.916Z,0.80
2023-08-29T12:42:15.071Z,1.15
2023-08-29T12:44:43.237Z,0.85
2023-08-29T12:47:11.012Z,0.95
2023-08-29T12:49:38.796Z,0.90
2023-08-29T12:52:07.897Z,0.93
2023-08-29T12:54:37.356Z,1.00
2023-08-29T12:57:06.162Z,0.80
2023-08-29T12:59:34.054Z,0.90
2023-08-29T13:02:01.974Z,0.90
2023-08-29T13:04:29.865Z,0.88
2023-08-29T13:06:57.651Z,0.90
2023-08-29T13:09:36.713Z,1.02
2023-08-29T13:12:08.770Z,1.10
2023-08-29T13:14:39.807Z,0.90
2023-08-29T13:17:10.907Z,0.75
2023-08-29T13:19:41.173Z,1.00
2023-08-29T13:22:09.353Z,0.98
2023-08-29T13:24:37.924Z,0.88
2023-08-29T13:27:07.383Z,1.00
2023-08-29T13:29:35.458Z,0.82
2023-08-29T13:32:03.507Z,0.90
2023-08-29T13:34:31.538Z,1.05
2023-08-29T13:36:59.425Z,1.20
2023-08-29T13:39:27.336Z,1.08
2023-08-29T13:41:55.284Z,1.05
2023-08-29T13:44:25.018Z,1.02
2023-08-29T13:46:52.992Z,1.10
2023-08-29T13:49:20.860Z,1.45
2023-08-29T13:51:49.865Z,1.10
2023-08-29T13:54:17.695Z,0.88
2023-08-29T13:56:46.035Z,1.10
2023-08-29T13:59:13.961Z,0.88
2023-08-29T14:01:43.103Z,0.82
2023-08-29T14:04:10.957Z,1.10
2023-08-29T14:06:38.829Z,0.88
2023-08-29T14:09:06.688Z,1.20
2023-08-29T14:11:34.637Z,0.98
2023-08-29T14:14:02.444Z,0.75
2023-08-29T14:16:30.506Z,0.68
2023-08-29T14:18:59.616Z,0.80
2023-08-29T14:21:27.493Z,0.60
2023-08-29T14:23:55.248Z,0.73
2023-08-29T14:26:23.053Z,0.70
2023-08-29T14:28:50.907Z,0.88
2023-08-29T14:31:23.471Z,0.90
2023-08-29T14:33:52.412Z,0.63
2023-08-29T14:36:21.809Z,0.98
2023-08-29T14:38:50.052Z,0.75
2023-08-29T14:41:18.038Z,0.70
2023-08-29T14:43:45.835Z,0.80
2023-08-29T14:46:13.695Z,0.63
2023-08-29T14:48:42.562Z,0.90
2023-08-29T14:51:11.068Z,0.80
2023-08-29T14:53:41.084Z,0.70
2023-08-29T14:56:09.012Z,0.80
2023-08-29T14:58:36.907Z,0.80
2023-08-29T15:01:04.903Z,0.82
2023-08-29T15:03:33.003Z,1.17
2023-08-29T15:06:02.302Z,0.60
2023-08-29T15:08:30.149Z,0.60
2023-08-29T15:10:59.700Z,0.70
2023-08-29T15:13:27.706Z,1.00
2023-08-29T15:15:59.912Z,0.90
2023-08-29T15:18:27.853Z,0.90
2023-08-29T15:20:55.719Z,0.65
2023-08-29T15:23:25.342Z,0.88
2023-08-29T15:25:53.469Z,0.68
2023-08-29T15:28:28.101Z,0.80
2023-08-29T15:30:56.124Z,0.80
2023-08-29T15:33:25.155Z,0.80
2023-08-29T15:35:52.979Z,0.93
2023-08-29T15:38:20.832Z,0.60
2023-08-29T15:40:51.009Z,0.55
2023-08-29T15:43:19.514Z,0.70
2023-08-29T15:45:49.401Z,0.80
2023-08-29T15:48:18.171Z,0.88
2023-08-29T15:50:46.540Z,0.75
2023-08-29T15:53:14.909Z,0.77
2023-08-29T15:55:44.429Z,0.70
2023-08-29T15:58:14.758Z,0.70
2023-08-29T16:00:42.695Z,0.77
2023-08-29T16:03:12.020Z,0.90
2023-08-29T16:05:40.010Z,0.80
2023-08-29T16:08:09.803Z,0.80
2023-08-29T16:10:38.021Z,0.60
2023-08-29T16:13:05.846Z,0.60
2023-08-29T16:15:33.662Z,0.75
2023-08-29T16:18:01.593Z,0.65
2023-08-29T16:20:30.855Z,1.00
2023-08-29T16:22:58.777Z,0.70
2023-08-29T16:25:28.703Z,0.82
2023-08-29T16:27:56.674Z,0.73
2023-08-29T16:30:24.559Z,1.00
2023-08-29T16:32:52.365Z,0.93
2023-08-29T16:35:20.515Z,0.75
2023-08-29T16:37:49.658Z,0.70
2023-08-29T16:40:17.881Z,0.90
2023-08-29T16:42:45.647Z,0.70
2023-08-29T16:45:13.490Z,0.80
2023-08-29T16:47:41.372Z,0.80
2023-08-29T16:50:10.531Z,1.00
2023-08-29T16:52:38.341Z,0.70
2023-08-29T16:55:08.726Z,0.80
2023-08-29T16:57:36.612Z,0.85
2023-08-29T17:00:10.840Z,0.57
2023-08-29T17:02:38.995Z,0.70
2023-08-29T17:05:07.523Z,0.93
2023-08-29T17:07:36.481Z,0.70
2023-08-29T17:10:04.641Z,0.60
2023-08-29T17:12:33.928Z,0.70
2023-08-29T17:15:05.307Z,0.80
2023-08-29T17:17:33.179Z,0.75
2023-08-29T17:20:01.225Z,1.08
2023-08-29T17:22:29.117Z,0.70
2023-08-29T17:24:57.217Z,0.65
2023-08-29T17:27:25.090Z,0.73
2023-08-29T17:29:55.308Z,0.80
2023-08-29T17:32:23.678Z,0.70
2023-08-29T17:34:51.464Z,0.82
2023-08-29T17:37:19.351Z,0.70
2023-08-29T17:39:49.209Z,0.70
2023-08-29T17:42:17.001Z,0.88
2023-08-29T17:44:44.921Z,0.80
2023-08-29T17:47:15.934Z,0.73
2023-08-29T17:49:43.806Z,0.68
2023-08-29T17:52:12.369Z,0.98
2023-08-29T17:54:40.185Z,1.02
2023-08-29T17:57:07.980Z,1.15
2023-08-29T17:59:35.764Z,1.60
2023-08-29T18:02:03.679Z,0.90
2023-08-29T18:04:32.808Z,1.00
2023-08-29T18:07:00.623Z,0.85
2023-08-29T18:09:28.423Z,1.20
2023-08-29T18:11:56.255Z,0.90
2023-08-29T18:14:24.071Z,0.90
2023-08-29T18:16:51.917Z,0.82
2023-08-29T18:19:20.481Z,1.15
2023-08-29T18:21:49.601Z,0.90
2023-08-29T18:24:17.425Z,0.90
2023-08-29T18:26:45.268Z,1.02
2023-08-29T18:29:13.066Z,0.95
2023-08-29T18:31:40.906Z,1.17
2023-08-29T18:34:08.781Z,1.00
2023-08-29T18:36:38.262Z,1.30
2023-08-29T18:39:09.096Z,1.23
2023-08-29T18:41:36.974Z,1.33
2023-08-29T18:44:05.461Z,1.30
2023-08-29T18:46:33.723Z,2.00
2023-08-29T18:49:01.583Z,2.00
2023-08-29T18:51:29.428Z,1.65
2023-08-29T18:53:57.216Z,2.85
2023-08-29T18:56:26.316Z,2.70
2023-08-29T18:58:54.198Z,1.48
2023-08-29T19:01:22.015Z,1.38
2023-08-29T19:03:48.930Z,1.80
2023-08-29T19:06:21.286Z,1.42
2023-08-29T19:08:50.840Z,1.95
2023-08-29T19:11:18.639Z,2.15
2023-08-29T19:13:47.826Z,2.90
2023-08-29T19:16:15.642Z,2.15
2023-08-29T19:18:43.434Z,1.80
2023-08-29T19:21:11.262Z,1.60
2023-08-29T19:23:39.088Z,3.00
2023-08-29T19:26:06.900Z,3.55
2023-08-29T19:28:34.789Z,2.60
2023-08-29T19:31:04.015Z,2.72
2023-08-29T19:33:32.004Z,2.30
2023-08-29T19:36:10.219Z,2.15
2023-08-29T19:38:37.990Z,2.15
2023-08-29T19:41:05.827Z,2.10
2023-08-29T19:43:33.669Z,2.10
2023-08-29T19:46:02.884Z,1.70
2023-08-29T19:48:31.568Z,2.13
2023-08-29T19:50:59.460Z,2.80
2023-08-29T19:53:27.567Z,2.90
2023-08-29T19:55:55.492Z,3.53
2023-08-29T19:58:23.625Z,3.72
2023-08-29T20:00:52.197Z,3.58
2023-08-29T20:03:21.481Z,3.50
2023-08-29T20:05:50.452Z,3.25
2023-08-29T20:08:18.239Z,3.28
2023-08-29T20:10:46.061Z,2.92
2023-08-29T20:13:14.059Z,2.70
2023-08-29T20:15:43.147Z,2.60
2023-08-29T20:18:12.075Z,2.70
2023-08-29T20:20:42.829Z,3.13
2023-08-29T20:23:11.215Z,2.65
2023-08-29T20:25:39.691Z,3.22
2023-08-29T20:28:08.164Z,4.93
2023-08-29T20:30:36.512Z,5.38
2023-08-29T20:33:05.124Z,4.95
2023-08-29T20:35:34.847Z,4.82
2023-08-29T20:38:05.422Z,4.57
2023-08-29T20:40:33.783Z,4.10
2023-08-29T20:43:01.622Z,4.03
2023-08-29T20:45:32.874Z,4.55
2023-08-29T20:48:00.700Z,4.65
2023-08-29T20:50:28.551Z,4.40
2023-08-29T20:52:56.339Z,4.40
2023-08-29T20:55:25.442Z,3.75
2023-08-29T20:57:53.302Z,4.35
2023-08-29T21:00:21.137Z,4.10
2023-08-29T21:02:49.042Z,4.82
2023-08-29T21:05:17.003Z,4.78
2023-08-29T21:07:44.788Z,4.70
2023-08-29T21:10:12.565Z,5.03
2023-08-29T21:12:41.652Z,4.95
2023-08-29T21:15:10.315Z,5.50
2023-08-29T21:17:38.126Z,5.88
2023-08-29T21:20:07.332Z,6.18
2023-08-29T21:22:35.101Z,5.93
2023-08-29T21:25:03.422Z,6.18
2023-08-29T21:27:31.193Z,5.57
2023-08-29T21:30:00.513Z,6.07
2023-08-29T21:32:28.352Z,6.07
2023-08-29T21:34:56.266Z,6.15
2023-08-29T21:37:24.076Z,5.97
2023-08-29T21:39:51.825Z,5.97
2023-08-29T21:42:19.614Z,5.20
2023-08-29T21:44:47.477Z,6.00
2023-08-29T21:47:16.578Z,5.82
2023-08-29T21:49:44.623Z,5.40
2023-08-29T21:52:12.459Z,5.63
2023-08-29T21:54:40.269Z,5.88
2023-08-29T21:57:08.073Z,5.05
2023-08-29T21:59:35.995Z,6.25
2023-08-29T22:02:03.809Z,6.15
2023-08-29T22:04:32.958Z,6.20
2023-08-29T22:07:01.754Z,6.25
2023-08-29T22:09:29.537Z,6.18
2023-08-29T22:11:57.757Z,6.57
2023-08-29T22:14:25.766Z,6.82
2023-08-29T22:16:53.568Z,6.18
2023-08-29T22:19:21.948Z,6.20
2023-08-29T22:21:51.951Z,7.05
2023-08-29T22:24:19.745Z,6.68
2023-08-29T22:26:47.534Z,6.50
2023-08-29T22:29:15.354Z,6.70
2023-08-29T22:31:43.177Z,6.68
2023-08-29T22:34:10.967Z,7.00
2023-08-29T22:36:38.840Z,7.28
2023-08-29T22:39:07.979Z,6.22
2023-08-29T22:41:35.815Z,6.68
2023-08-29T22:44:06.762Z,5.97
2023-08-29T22:46:34.702Z,5.53
2023-08-29T22:49:02.496Z,5.63
2023-08-29T22:51:30.292Z,5.82
2023-08-29T22:53:58.341Z,6.43
2023-08-29T22:56:27.621Z,6.78
2023-08-29T22:58:55.652Z,6.20
2023-08-29T23:01:23.521Z,6.35
2023-08-29T23:03:52.447Z,6.28
2023-08-29T23:06:21.587Z,5.65
2023-08-29T23:08:51.682Z,6.03
2023-08-29T23:11:20.227Z,6.22
2023-08-29T23:13:49.371Z,6.88
2023-08-29T23:16:17.151Z,4.95
2023-08-29T23:18:44.969Z,5.75
2023-08-29T23:21:13.405Z,5.68
2023-08-29T23:23:41.219Z,6.20
2023-08-29T23:26:08.983Z,6.97
2023-08-29T23:28:36.867Z,5.43
2023-08-29T23:31:05.992Z,4.88
2023-08-29T23:33:34.231Z,4.95
2023-08-29T23:36:02.365Z,5.60
2023-08-29T23:38:30.273Z,5.10
2023-08-29T23:40:58.134Z,4.45
2023-08-29T23:43:26.003Z,6.20
2023-08-29T23:45:53.819Z,5.40
2023-08-29T23:48:22.944Z,5.50
2023-08-29T23:50:50.837Z,5.03
2023-08-29T23:53:18.640Z,4.10
2023-08-29T23:55:46.458Z,4.15
2023-08-29T23:58:14.336Z,4.50
